Flight Track Log - Related Links

Times and Time Zones

All times are in EDT time to prevent confusion due to time zone crossing. See the LXJ537 flight status page for this flight to view local times or setup timezone preferences in your user account.

Time Position Orientation Groundspeed Altitude Reporting Facility
EDT Latitude Longitude Course Direction KTS MPH feet Rate Location/Type
Sat 04:56:04 PM 40.8167 -74.1167 270° West 211 243 3,100  Level New York TRACON
Sat 04:57:04 PM 40.7667 -74.1667 217° Southwest 256 295 7,200 3,650 Climbing New York TRACON
Sat 04:58:04 PM 40.7500 -74.2667 258° West 290 334 10,400 3,450 Climbing New York TRACON
Sat 04:59:04 PM 40.7167 -74.3500 242° Southwest 291 335 14,100 3,000 Climbing New York TRACON
Sat 05:00:04 PM 40.6833 -74.4667 249° West 329 379 16,400 1,155 Climbing New York TRACON
Sat 05:01:00 PM 40.6000 -74.8477 270° West  Level FlightAware Approximate
Sat 05:01:45 PM 40.6428 -74.6794 256° West 388 447 17,200  Level New York Center
Sat 05:02:43 PM 40.6111 -74.8114 252° West 388 447 19,600 2,441 Climbing New York Center
Sat 05:03:43 PM 40.5794 -74.9461 253° West 394 453 22,000 2,479 Climbing New York Center
Sat 05:04:44 PM 40.5333 -75.0689 244° Southwest 394 453 24,600 2,400 Climbing New York Center
Sat 05:05:43 PM 40.4669 -75.1739 230° Southwest 377 434 26,800 1,831 Climbing New York Center
Sat 05:06:42 PM 40.4003 -75.2842 232° Southwest 387 445 28,200 1,350 Climbing New York Center
Sat 05:07:43 PM 40.3294 -75.3939 230° Southwest 399 459 29,500 1,650 Climbing New York Center
Sat 05:08:42 PM 40.2561 -75.5086 230° Southwest 411 473 31,500 1,785 Climbing New York Center
Sat 05:09:44 PM 40.1906 -75.6292 235° Southwest 411 473 33,100 1,377 Climbing New York Center
Sat 05:10:44 PM 40.1269 -75.7578 237° Southwest 417 480 34,300 1,881 Climbing New York Center
Sat 05:11:42 PM 40.0653 -75.8808 237° Southwest 417 480 36,800 2,319 Climbing New York Center
Sat 05:12:43 PM 40.0058 -76.0014 237° Southwest 411 473 38,900 1,610 Climbing New York Center
Sat 05:13:45 PM 39.9464 -76.1186 237° Southwest 400 460 40,100 1,100 Climbing New York Center
Sat 05:14:43 PM 39.8808 -76.2328 233° Southwest 400 460 41,100 1,008 Climbing New York Center
Sat 05:15:44 PM 39.8211 -76.3497 236° Southwest 400 460 42,100 768 Climbing New York Center
Sat 05:16:48 PM 39.7606 -76.4661 236° Southwest 403 464 42,700 435 Climbing Washington Center
Sat 05:17:48 PM 39.6992 -76.5839 236° Southwest 398 458 43,000 150 Climbing Washington Center
Sat 05:18:48 PM 39.6333 -76.7097 236° Southwest 403 464 43,000  Level Washington Center
Sat 05:19:49 PM 39.5675 -76.8353 236° Southwest 417 480 43,000  Level Washington Center
Sat 05:20:47 PM 39.5017 -76.9631 236° Southwest 425 489 43,000  Level Washington Center
Sat 05:21:47 PM 39.4128 -77.0664 222° Southwest 431 496 43,000  Level Washington Center
Sat 05:22:48 PM 39.3178 -77.1636 218° Southwest 431 496 43,000  Level Washington Center
Sat 05:23:48 PM 39.2250 -77.2633 220° Southwest 437 503 43,000  Level Washington Center
Sat 05:24:47 PM 39.1522 -77.3850 232° Southwest 431 496 43,000  Level Washington Center
Sat 05:25:48 PM 39.0833 -77.5356 240° Southwest 444 511 43,000  Level Washington Center
Sat 05:26:47 PM 39.0292 -77.6572 240° Southwest 449 517 43,000  Level Washington Center
Sat 05:27:48 PM 38.9619 -77.8047 240° Southwest 439 505 43,000  Level Washington Center
Sat 05:28:48 PM 38.8986 -77.9494 241° Southwest 451 519 43,000  Level Washington Center
Sat 05:29:49 PM 38.8375 -78.0808 239° Southwest 451 519 43,000  Level Washington Center
Sat 05:30:47 PM 38.7764 -78.2119 239° Southwest 445 512 43,000  Level Washington Center
Sat 05:31:47 PM 38.7131 -78.3453 239° Southwest 440 506 43,000  Level Washington Center
Sat 05:32:47 PM 38.6517 -78.4761 239° Southwest 440 506 43,000  Level Washington Center
Sat 05:33:48 PM 38.5900 -78.6117 240° Southwest 440 506 43,000  Level Washington Center
Sat 05:34:49 PM 38.5281 -78.7444 239° Southwest 440 506 43,000  Level Washington Center
Sat 05:35:47 PM 38.4661 -78.8744 239° Southwest 440 506 43,000  Level Washington Center
Sat 05:36:48 PM 38.4106 -79.0044 241° Southwest 435 501 43,000  Level Washington Center
Sat 05:37:48 PM 38.3461 -79.1339 238° Southwest 435 501 43,000  Level Washington Center
Sat 05:38:49 PM 38.2906 -79.2558 240° Southwest 435 501 43,000  Level Washington Center
Sat 05:39:48 PM 38.2258 -79.3847 237° Southwest 435 501 43,000  Level Washington Center
Sat 05:40:48 PM 38.1722 -79.5008 240° Southwest 435 501 43,000  Level Washington Center
Sat 05:41:49 PM 38.0958 -79.6606 239° Southwest 435 501 43,000  Level Washington Center
Sat 05:42:47 PM 38.0331 -79.7917 239° Southwest 441 507 43,000  Level Washington Center
Sat 05:43:48 PM 37.9747 -79.9094 238° Southwest 441 507 43,000  Level Washington Center
Sat 05:44:49 PM 37.9114 -80.0375 238° Southwest 441 507 43,000  Level Washington Center
Sat 05:45:47 PM 37.8461 -80.1703 238° Southwest 441 507 43,000  Level Washington Center
Sat 05:48:08 PM 37.6997 -80.4556 237° Southwest 432 497 43,000  Level Indianapolis Center
Sat 05:49:09 PM 37.6264 -80.6036 238° Southwest 429 494 43,000  Level Indianapolis Center
Sat 05:50:11 PM 37.5650 -80.7258 238° Southwest 426 490 43,000  Level Indianapolis Center
Sat 05:51:13 PM 37.5050 -80.8472 238° Southwest 423 487 43,000  Level Indianapolis Center
Sat 05:52:14 PM 37.4308 -80.9925 237° Southwest 422 486 43,000  Level Indianapolis Center
Sat 05:53:16 PM 37.3697 -81.1131 237° Southwest 422 486 43,000  Level Indianapolis Center
Sat 05:54:17 PM 37.3094 -81.2333 238° Southwest 420 483 43,000  Level Indianapolis Center
Sat 05:55:19 PM 37.2383 -81.3694 237° Southwest 421 484 43,000  Level Indianapolis Center
Sat 05:56:20 PM 37.1775 -81.4928 238° Southwest 417 480 43,000  Level Indianapolis Center
Sat 05:57:22 PM 37.1139 -81.6158 237° Southwest 418 481 43,000  Level Indianapolis Center
Sat 05:58:24 PM 37.0492 -81.7394 237° Southwest 422 486 43,000  Level Indianapolis Center
Sat 05:59:25 PM 36.9864 -81.8633 238° Southwest 420 483 43,000  Level Indianapolis Center
Sat 06:00:27 PM 36.9222 -81.9856 237° Southwest 420 483 43,000  Level Indianapolis Center
Sat 06:01:28 PM 36.8575 -82.1094 237° Southwest 423 487 43,000  Level Indianapolis Center
Sat 06:02:30 PM 36.7819 -82.2531 237° Southwest 423 487 43,000  Level Indianapolis Center
Sat 06:03:31 PM 36.7175 -82.3775 237° Southwest 423 487 43,000  Level Indianapolis Center
Sat 06:04:33 PM 36.6517 -82.5006 236° Southwest 423 487 43,000  Level Indianapolis Center
Sat 06:05:42 PM 36.5717 -82.6456 236° Southwest 425 489 43,000  Level Atlanta Center
Sat 06:06:42 PM 36.5086 -82.7731 238° Southwest 425 489 43,000  Level Atlanta Center
Sat 06:07:42 PM 36.4431 -82.8956 236° Southwest 430 495 43,000  Level Atlanta Center
Sat 06:08:42 PM 36.3772 -83.0175 236° Southwest 430 495 43,000  Level Atlanta Center
Sat 06:09:42 PM 36.3178 -83.1267 236° Southwest 430 495 43,000  Level Atlanta Center
Sat 06:10:42 PM 36.2517 -83.2508 237° Southwest 430 495 43,000  Level Atlanta Center
Sat 06:11:42 PM 36.1858 -83.3725 236° Southwest 430 495 43,000  Level Atlanta Center
Sat 06:12:42 PM 36.1197 -83.4964 237° Southwest 430 495 43,000  Level Atlanta Center
Sat 06:13:42 PM 36.0492 -83.6278 236° Southwest 430 495 43,000  Level Atlanta Center
Sat 06:14:42 PM 35.9808 -83.7514 236° Southwest 430 495 43,000  Level Atlanta Center
Sat 06:15:42 PM 35.9142 -83.8747 236° Southwest 436 502 43,000  Level Atlanta Center
Sat 06:16:42 PM 35.8372 -83.9875 230° Southwest 441 507 43,000  Level Atlanta Center
Sat 06:17:42 PM 35.7558 -84.0975 228° Southwest 441 507 43,000  Level Atlanta Center
Sat 06:18:42 PM 35.6764 -84.2100 229° Southwest 446 513 43,000  Level Atlanta Center
Sat 06:19:42 PM 35.5969 -84.3222 229° Southwest 446 513 43,000  Level Atlanta Center
Sat 06:20:42 PM 35.5175 -84.4342 229° Southwest 441 507 43,000  Level Atlanta Center
Sat 06:21:42 PM 35.4336 -84.5461 227° Southwest 436 502 43,000  Level Atlanta Center
Sat 06:22:42 PM 35.3536 -84.6550 228° Southwest 436 502 43,000  Level Atlanta Center
Sat 06:23:42 PM 35.2739 -84.7689 229° Southwest 436 502 43,000  Level Atlanta Center
Sat 06:24:42 PM 35.2086 -84.8572 228° Southwest 441 507 43,000  Level Atlanta Center
Sat 06:25:42 PM 35.1200 -84.9808 229° Southwest 441 507 43,000  Level Atlanta Center
Sat 06:26:42 PM 35.0356 -85.0942 228° Southwest 441 507 43,000  Level Atlanta Center
Sat 06:27:42 PM 34.9553 -85.2069 229° Southwest 441 507 43,000  Level Atlanta Center
Sat 06:28:42 PM 34.8708 -85.3197 228° Southwest 441 507 43,000  Level Atlanta Center
Sat 06:29:42 PM 34.7903 -85.4272 228° Southwest 441 507 43,000  Level Atlanta Center
Sat 06:30:42 PM 34.7056 -85.5422 228° Southwest 441 507 43,000  Level Atlanta Center
Sat 06:31:42 PM 34.6228 -85.6542 228° Southwest 441 507 43,000  Level Atlanta Center
Sat 06:32:42 PM 34.5378 -85.7661 227° Southwest 446 513 43,000  Level Atlanta Center
Sat 06:33:42 PM 34.4506 -85.8828 228° Southwest 441 507 43,000  Level Atlanta Center
Sat 06:34:42 PM 34.3919 -86.0122 241° Southwest 441 507 43,000  Level Atlanta Center
Sat 06:35:42 PM 34.3314 -86.1467 241° Southwest 441 507 43,000  Level Atlanta Center
Sat 06:36:42 PM 34.2728 -86.2736 241° Southwest 441 507 43,000  Level Atlanta Center
Sat 06:37:42 PM 34.2139 -86.4050 242° Southwest 441 507 43,000  Level Atlanta Center
Sat 06:38:42 PM 34.1550 -86.5364 242° Southwest 448 516 43,000  Level Atlanta Center
Sat 06:39:42 PM 34.0981 -86.6653 242° Southwest 448 516 43,000  Level Atlanta Center
Sat 06:40:42 PM 34.0367 -86.7989 241° Southwest 448 516 43,000  Level Atlanta Center
Sat 06:41:42 PM 33.9775 -86.9294 241° Southwest 448 516 43,000  Level Atlanta Center
Sat 06:42:42 PM 33.9181 -87.0578 241° Southwest 448 516 43,000  Level Atlanta Center
Sat 06:43:42 PM 33.8583 -87.1908 242° Southwest 448 516 43,000  Level Atlanta Center
Sat 06:44:42 PM 33.7983 -87.3236 241° Southwest 448 516 43,000  Level Atlanta Center
Sat 06:45:44 PM 33.7339 -87.4597 240° Southwest 431 496 43,000  Level Memphis Center
Sat 06:46:44 PM 33.6744 -87.5914 242° Southwest 443 510 43,000  Level Memphis Center
Sat 06:47:44 PM 33.6167 -87.7206 242° Southwest 448 516 43,000  Level Memphis Center
Sat 06:48:44 PM 33.5567 -87.8494 241° Southwest 448 516 43,000  Level Memphis Center
Sat 06:49:44 PM 33.4967 -87.9808 241° Southwest 448 516 43,000  Level Memphis Center
Sat 06:50:44 PM 33.4344 -88.1094 240° Southwest 448 516 43,000  Level Memphis Center
Sat 06:51:44 PM 33.3822 -88.2350 244° Southwest 442 509 43,000  Level Memphis Center
Sat 06:52:44 PM 33.3197 -88.3633 240° Southwest 442 509 43,000  Level Memphis Center
Sat 06:53:44 PM 33.2592 -88.4914 241° Southwest 442 509 43,000  Level Memphis Center
Sat 06:54:44 PM 33.1983 -88.6194 240° Southwest 442 509 43,000  Level Memphis Center
Sat 06:55:44 PM 33.1436 -88.7394 241° Southwest 448 516 43,000  Level Memphis Center
Sat 06:56:44 PM 33.0825 -88.8647 240° Southwest 448 516 43,000  Level Memphis Center
Sat 06:57:44 PM 33.0214 -88.9919 240° Southwest 448 516 43,000  Level Memphis Center
Sat 06:58:44 PM 32.9600 -89.1192 240° Southwest 448 516 43,000  Level Memphis Center
Sat 06:59:44 PM 32.8986 -89.2439 240° Southwest 448 516 43,000  Level Memphis Center
Sat 07:00:44 PM 32.8369 -89.3708 240° Southwest 448 516 43,000  Level Memphis Center
Sat 07:01:44 PM 32.7753 -89.4975 240° Southwest 448 516 43,000  Level Memphis Center
Sat 07:02:44 PM 32.7136 -89.6239 240° Southwest 448 516 43,000  Level Memphis Center
Sat 07:03:44 PM 32.6494 -89.7503 239° Southwest 448 516 43,000  Level Memphis Center
Sat 07:04:44 PM 32.5833 -89.8864 240° Southwest 448 516 43,000  Level Memphis Center
Sat 07:05:44 PM 32.5233 -90.0125 241° Southwest 448 516 43,000  Level Memphis Center
Sat 07:06:44 PM 32.4631 -90.1358 240° Southwest 448 516 43,000  Level Memphis Center
Sat 07:07:44 PM 32.3983 -90.2614 239° Southwest 448 516 43,000  Level Memphis Center
Sat 07:08:44 PM 32.3419 -90.3744 239° Southwest 448 516 43,000  Level Memphis Center
Sat 07:09:44 PM 32.2814 -90.4975 240° Southwest 448 516 43,000  Level Memphis Center
Sat 07:10:44 PM 32.2186 -90.6200 239° Southwest 448 516 43,000  Level Memphis Center
Sat 07:11:59 PM 32.1506 -90.7639 241° Southwest 443 510 43,000  Level Houston Center
Sat 07:13:00 PM 32.0856 -90.8950 240° Southwest 443 510 43,000  Level Houston Center
Sat 07:14:01 PM 32.0103 -91.0436 239° Southwest 442 509 43,000  Level Houston Center
Sat 07:15:03 PM 31.9469 -91.1681 239° Southwest 444 511 43,000  Level Houston Center
Sat 07:16:04 PM 31.8839 -91.2911 239° Southwest 442 509 43,000  Level Houston Center
Sat 07:17:06 PM 31.8197 -91.4147 239° Southwest 443 510 43,000  Level Houston Center
Sat 07:18:07 PM 31.7564 -91.5389 239° Southwest 446 513 43,000  Level Houston Center
Sat 07:19:09 PM 31.6928 -91.6622 239° Southwest 444 511 43,000  Level Houston Center
Sat 07:20:10 PM 31.6283 -91.7872 239° Southwest 449 517 43,000  Level Houston Center
Sat 07:21:12 PM 31.5636 -91.9111 239° Southwest 448 516 43,000  Level Houston Center
Sat 07:22:13 PM 31.4864 -92.0572 238° Southwest 448 516 43,000  Level Houston Center
Sat 07:23:15 PM 31.4222 -92.1806 239° Southwest 447 514 43,000  Level Houston Center
Sat 07:24:16 PM 31.3578 -92.3047 239° Southwest 449 517 43,000  Level Houston Center
Sat 07:25:18 PM 31.2919 -92.4289 238° Southwest 453 521 43,000 -49 Level Houston Center
Sat 07:26:19 PM 31.2331 -92.5544 241° Southwest 446 513 42,900  Descending Houston Center
Sat 07:27:21 PM 31.1900 -92.6814 248° West 427 491 43,000 49 Climbing Houston Center
Sat 07:28:22 PM 31.1450 -92.8003 246° West 408 470 43,000  Level Houston Center
Sat 07:29:24 PM 31.1025 -92.9172 247° West 397 457 43,000  Level Houston Center
Sat 07:30:25 PM 31.0508 -93.0569 247° West 393 452 43,000  Level Houston Center
Sat 07:31:27 PM 31.0067 -93.1728 246° West 393 452 43,000  Level Houston Center
Sat 07:32:28 PM 30.9628 -93.2900 246° West 394 453 43,000  Level Houston Center
Sat 07:33:30 PM 30.9189 -93.4081 247° West 399 459 43,000  Level Houston Center
Sat 07:34:31 PM 30.8739 -93.5269 246° West 404 465 43,000  Level Houston Center
Sat 07:35:33 PM 30.8314 -93.6461 247° West 403 464 43,000  Level Houston Center
Sat 07:36:34 PM 30.8181 -93.7717 263° West 399 459 43,000  Level Houston Center
Sat 07:37:36 PM 30.8022 -93.9167 263° West 383 441 43,000  Level Houston Center
Sat 07:38:37 PM 30.7897 -94.0378 263° West 380 437 43,000  Level Houston Center
Sat 07:39:38 PM 30.7789 -94.1528 264° West 366 421 43,000  Level Houston Center
Sat 07:40:40 PM 30.8161 -94.2464 295° West 324 373 43,000  Level Houston Center
Sat 07:41:41 PM 30.9014 -94.2883 337° Northwest 333 383 43,000  Level Houston Center
Sat 07:42:43 PM 30.9914 -94.2525 19° North 336 387 43,000  Level Houston Center
Sat 07:43:44 PM 31.0669 -94.1419 51° Northeast 368 423 43,000  Level Houston Center
Sat 07:44:46 PM 31.0731 -94.0142 87° East 400 460 43,000  Level Houston Center
Sat 07:45:47 PM 31.0561 -93.8786 98° East 416 479 43,000 -732 Level Houston Center
Sat 07:46:49 PM 31.0417 -93.7458 97° East 412 474 41,500 -1,512 Descending Houston Center
Sat 07:47:50 PM 31.0261 -93.6061 97° East 430 495 39,900 -1,869 Descending Houston Center
Sat 07:48:51 PM 31.0114 -93.4667 97° East 432 497 37,700 -2,439 Descending Houston Center
Sat 07:49:53 PM 30.9936 -93.3253 98° East 439 505 34,900 -2,927 Descending Houston Center
Sat 07:50:54 PM 30.9764 -93.1833 98° East 441 507 31,700 -3,415 Descending Houston Center
Sat 07:51:56 PM 30.9039 -93.0706 127° Southeast 475 547 27,900 -3,415 Descending Houston Center
Sat 07:52:57 PM 30.7856 -93.0983 191° South 445 512 24,700 -1,967 Descending Houston Center
Sat 07:53:58 PM 30.7075 -93.1886 225° Southwest 396 456 23,900 -341 Descending Houston Center
Sat 07:55:00 PM 30.6289 -93.2797 225° Southwest 398 458 24,000 49 Climbing Houston Center
Sat 07:56:01 PM 30.5706 -93.4094 242° Southwest 390 449 24,000  Level Houston Center
Sat 07:57:02 PM 30.5575 -93.5306 263° West 386 444 24,000  Level Houston Center
Sat 07:58:04 PM 30.5497 -93.6497 266° West 379 436 24,000  Level Houston Center
Sat 07:59:05 PM 30.5419 -93.7697 266° West 379 436 24,000  Level Houston Center
Sat 08:00:07 PM 30.5344 -93.8928 266° West 385 443 24,000 -293 Level Houston Center
Sat 08:01:08 PM 30.5269 -94.0167 266° West 387 445 23,400 -1,180 Descending Houston Center
Sat 08:02:09 PM 30.5181 -94.1614 266° West 380 437 21,600 -1,561 Descending Houston Center
Sat 08:03:11 PM 30.5106 -94.2819 266° West 377 434 20,200 -1,415 Descending Houston Center
Sat 08:04:12 PM 30.5036 -94.4025 266° West 377 434 18,700 -1,561 Descending Houston Center
Sat 08:05:14 PM 30.4831 -94.5278 259° West 373 429 17,000 -1,624 Descending Houston Center
Sat 08:06:25 PM 30.4108 -94.6469 235° Southwest 365 420 15,100 -1,475 Descending Houston Center
Sat 08:07:16 PM 30.3664 -94.7178 234° Southwest 362 417 14,000 -1,513 Descending Houston Center
Sat 08:08:20 PM 30.2956 -94.8264 233° Southwest 378 435 12,200 -1,463 Descending Houston Center
Sat 08:09:19 PM 30.2467 -94.9039 234° Southwest 365 420 11,000 -1,041 Descending Houston Center
Sat 08:10:21 PM 30.1919 -94.9878 233° Southwest 333 383 10,100 -439 Descending Houston Center
Sat 08:11:22 PM 30.1339 -95.0664 230° Southwest 326 375 10,100 -49 Level Houston Center
Sat 08:12:23 PM 30.0269 -95.0975 194° South 330 380 10,000 -537 Descending Houston Center
Sat 08:13:25 PM 29.9453 -95.1058 185° South 299 344 9,000 -878 Descending Houston Center
Sat 08:14:26 PM 29.8683 -95.1283 194° South 276 318 8,200 -1,171 Descending Houston Center
Sat 08:15:28 PM 29.7958 -95.1489 194° South 279 321 6,600 -1,041 Descending Houston Center
Sat 08:16:27 PM 29.7228 -95.1894 206° Southwest 272 313 6,100 -1,300 Descending Houston Center
Sat 08:17:28 PM 29.6808 -95.2572 235° Southwest 273 314 4,000 -1,475 Descending Houston Center
Sat 08:18:29 PM 29.6486 -95.3403 246° West 267 307 3,100 -738 Descending Houston Center
Sat 08:19:30 PM 29.6606 -95.4039 282° West 196 226 2,500 -492 Descending Houston Center
Sat 08:20:31 PM 29.7044 -95.4011 North 208 239 2,100 -344 Descending Houston Center
Sat 08:21:32 PM 29.6933 -95.3469 103° East 160 184 1,800 -639 Descending Houston Center
Sat 08:22:33 PM 29.6689 -95.3092 127° Southeast 148 170 800 -756 Descending Houston Center
Sat 08:23:39 PM 29.6456 -95.2800 133° Southeast 154 177 200 -545 Descending Houston Center

Login

Don't have an account? Register now (free) for customized features, flight alerts, and more!